createdAt,value
2022-10-19T00:00:16.858Z,76.82
2022-10-19T00:02:19.916Z,76.70
2022-10-19T00:04:22.976Z,77.00
2022-10-19T00:06:27.442Z,76.98
2022-10-19T00:08:30.490Z,76.84
2022-10-19T00:10:33.553Z,76.92
2022-10-19T00:12:36.650Z,75.82
2022-10-19T00:14:41.030Z,76.61
2022-10-19T00:16:47.454Z,77.03
2022-10-19T00:18:50.702Z,77.34
2022-10-19T00:20:53.663Z,76.62
2022-10-19T00:22:56.719Z,76.66
2022-10-19T00:24:59.733Z,76.99
2022-10-19T00:27:02.733Z,77.05
2022-10-19T00:29:06.728Z,76.80
2022-10-19T00:31:12.156Z,76.73
2022-10-19T00:33:20.785Z,76.51
2022-10-19T00:35:23.744Z,76.59
2022-10-19T00:37:27.063Z,76.99
2022-10-19T00:39:30.254Z,76.97
2022-10-19T00:41:34.869Z,76.93
2022-10-19T00:43:51.298Z,77.47
2022-10-19T00:45:54.413Z,77.65
2022-10-19T00:47:58.977Z,77.43
2022-10-19T00:50:02.147Z,77.29
2022-10-19T00:52:07.183Z,77.02
2022-10-19T00:54:10.731Z,76.92
2022-10-19T00:56:15.608Z,76.90
2022-10-19T00:58:18.857Z,76.00
2022-10-19T01:00:22.413Z,76.73
2022-10-19T01:02:25.580Z,75.71
2022-10-19T01:04:30.506Z,77.25
2022-10-19T01:06:33.930Z,77.11
2022-10-19T01:08:36.965Z,76.78
2022-10-19T01:10:44.444Z,76.65
2022-10-19T01:12:59.486Z,77.29
2022-10-19T01:15:07.124Z,77.44
2022-10-19T01:17:14.536Z,76.74
2022-10-19T01:19:40.602Z,77.12
2022-10-19T01:21:48.501Z,77.32
2022-10-19T01:24:09.754Z,76.98
2022-10-19T01:26:24.339Z,76.89
2022-10-19T01:28:34.142Z,76.63
2022-10-19T01:30:48.451Z,76.51
2022-10-19T01:32:59.988Z,75.87
2022-10-19T01:35:07.656Z,76.27
2022-10-19T01:37:15.585Z,76.60
2022-10-19T01:39:25.971Z,76.67
2022-10-19T01:41:31.741Z,76.58
2022-10-19T01:43:39.028Z,76.38
2022-10-19T01:45:45.354Z,76.46
2022-10-19T01:47:52.900Z,76.39
2022-10-19T01:49:58.233Z,76.56
2022-10-19T01:52:03.357Z,76.37
2022-10-19T01:54:08.287Z,76.73
2022-10-19T01:56:12.935Z,76.52
2022-10-19T01:58:18.539Z,76.97
2022-10-19T02:00:23.449Z,77.60
2022-10-19T02:02:27.897Z,78.25
2022-10-19T02:04:32.721Z,77.75
2022-10-19T02:06:36.674Z,77.93
2022-10-19T02:08:41.468Z,77.36
2022-10-19T02:10:46.338Z,77.62
2022-10-19T02:12:50.337Z,77.23
2022-10-19T02:14:56.199Z,77.32
2022-10-19T02:17:02.124Z,77.88
2022-10-19T02:19:06.490Z,77.72
2022-10-19T02:21:11.022Z,78.74
2022-10-19T02:23:14.633Z,78.53
2022-10-19T02:25:17.974Z,78.03
2022-10-19T02:27:21.236Z,78.75
2022-10-19T02:29:24.287Z,77.63
2022-10-19T02:31:27.453Z,77.08
2022-10-19T02:33:30.869Z,77.83
2022-10-19T02:35:34.038Z,77.75
2022-10-19T02:37:38.449Z,77.66
2022-10-19T02:39:41.682Z,76.94
2022-10-19T02:41:46.679Z,76.58
2022-10-19T02:43:51.166Z,77.34
2022-10-19T02:45:57.215Z,78.18
2022-10-19T02:48:03.152Z,77.51
2022-10-19T02:50:06.791Z,78.06
2022-10-19T02:52:11.039Z,78.26
2022-10-19T02:54:15.388Z,78.40
2022-10-19T02:56:18.651Z,78.25
2022-10-19T02:58:21.810Z,78.03
2022-10-19T03:00:24.833Z,77.39
2022-10-19T03:02:27.861Z,78.14
2022-10-19T03:04:30.970Z,78.21
2022-10-19T03:06:34.064Z,78.38
2022-10-19T03:08:37.076Z,78.00
2022-10-19T03:10:41.496Z,77.22
2022-10-19T03:12:44.693Z,77.20
2022-10-19T03:14:47.762Z,78.11
2022-10-19T03:16:51.000Z,77.44
2022-10-19T03:18:54.767Z,79.21
2022-10-19T03:21:02.575Z,79.17
2022-10-19T03:23:05.567Z,78.83
2022-10-19T03:25:09.667Z,78.80
2022-10-19T03:27:14.102Z,79.26
2022-10-19T03:29:17.121Z,78.61
2022-10-19T03:31:20.333Z,78.11
2022-10-19T03:33:23.351Z,78.75
2022-10-19T03:35:26.374Z,78.35
2022-10-19T03:37:29.474Z,78.06
2022-10-19T03:39:32.451Z,78.16
2022-10-19T03:41:37.178Z,78.17
2022-10-19T03:43:42.071Z,78.23
2022-10-19T03:45:47.485Z,77.76
2022-10-19T03:47:51.191Z,79.09
2022-10-19T03:49:54.563Z,78.80
2022-10-19T03:51:57.855Z,78.61
2022-10-19T03:54:03.070Z,78.25
2022-10-19T03:56:08.238Z,77.95
2022-10-19T03:58:11.538Z,78.62
2022-10-19T04:00:16.957Z,77.34
2022-10-19T04:02:20.012Z,78.28
2022-10-19T04:04:25.935Z,78.04
2022-10-19T04:06:32.330Z,78.50
2022-10-19T04:08:36.351Z,78.33
2022-10-19T04:10:39.694Z,77.59
2022-10-19T04:12:42.765Z,78.36
2022-10-19T04:14:56.738Z,78.90
2022-10-19T04:17:02.654Z,78.43
2022-10-19T04:19:05.930Z,78.94
2022-10-19T04:21:22.671Z,77.85
2022-10-19T04:23:27.481Z,78.12
2022-10-19T04:25:30.707Z,78.42
2022-10-19T04:27:34.122Z,79.39
2022-10-19T04:29:37.771Z,78.84
2022-10-19T04:31:41.387Z,79.34
2022-10-19T04:35:49.897Z,79.07
2022-10-19T04:37:53.165Z,78.62
2022-10-19T04:39:56.478Z,78.62
2022-10-19T04:41:59.811Z,78.83
2022-10-19T04:44:04.837Z,78.89
2022-10-19T04:46:10.103Z,79.71
2022-10-19T04:48:15.132Z,78.79
2022-10-19T04:50:20.051Z,78.62
2022-10-19T04:52:32.538Z,78.44
2022-10-19T04:54:35.834Z,78.65
2022-10-19T04:56:40.939Z,78.09
2022-10-19T04:58:45.000Z,78.04
2022-10-19T05:00:48.379Z,78.27
2022-10-19T05:02:51.703Z,77.76
2022-10-19T05:04:55.006Z,78.29
2022-10-19T05:06:59.649Z,78.93
2022-10-19T05:09:05.567Z,79.00
2022-10-19T05:11:11.276Z,78.27
2022-10-19T05:13:14.594Z,78.46
2022-10-19T05:15:18.102Z,78.83
2022-10-19T05:17:21.364Z,79.17
2022-10-19T05:19:24.773Z,79.14
2022-10-19T05:21:29.096Z,78.65
2022-10-19T05:23:34.360Z,78.70
2022-10-19T05:25:37.642Z,79.09
2022-10-19T05:27:40.954Z,79.49
2022-10-19T05:29:44.243Z,77.99
2022-10-19T05:31:47.513Z,78.45
2022-10-19T05:33:51.036Z,78.21
2022-10-19T05:35:54.287Z,78.76
2022-10-19T05:37:57.592Z,78.28
2022-10-19T05:40:02.376Z,78.65
2022-10-19T05:42:05.753Z,78.21
2022-10-19T05:44:09.107Z,78.08
2022-10-19T05:46:14.436Z,79.07
2022-10-19T05:48:17.808Z,78.34
2022-10-19T05:50:21.170Z,77.79
2022-10-19T05:52:24.439Z,78.61
2022-10-19T05:54:28.568Z,79.02
2022-10-19T05:56:33.897Z,78.27
2022-10-19T05:58:37.257Z,78.88
2022-10-19T06:00:40.925Z,78.89
2022-10-19T06:02:44.225Z,79.41
2022-10-19T06:04:47.503Z,78.81
2022-10-19T06:06:50.841Z,78.29
2022-10-19T06:08:55.072Z,79.03
2022-10-19T06:11:06.610Z,79.22
2022-10-19T06:13:11.714Z,78.74
2022-10-19T06:15:15.199Z,79.20
2022-10-19T06:17:18.672Z,79.35
2022-10-19T06:19:22.103Z,79.98
2022-10-19T06:21:27.023Z,79.74
2022-10-19T06:23:33.260Z,80.86
2022-10-19T06:25:37.141Z,80.43
2022-10-19T06:27:40.598Z,80.17
2022-10-19T06:29:45.272Z,80.27
2022-10-19T06:31:49.268Z,80.09
2022-10-19T06:33:52.652Z,80.36
2022-10-19T06:35:55.958Z,80.34
2022-10-19T06:37:59.268Z,80.73
2022-10-19T06:40:06.913Z,80.09
2022-10-19T06:42:10.647Z,79.61
2022-10-19T06:44:13.958Z,79.74
2022-10-19T06:46:22.030Z,80.55
2022-10-19T06:48:25.742Z,79.46
2022-10-19T06:50:29.062Z,79.63
2022-10-19T06:52:33.423Z,80.40
2022-10-19T06:54:36.992Z,80.60
2022-10-19T06:56:40.284Z,81.11
2022-10-19T06:58:46.526Z,81.29
2022-10-19T07:00:57.090Z,81.98
2022-10-19T07:03:01.763Z,82.25
2022-10-19T07:05:06.931Z,82.42
2022-10-19T07:07:10.450Z,82.27
2022-10-19T07:09:13.884Z,82.46
2022-10-19T07:11:18.804Z,82.36
2022-10-19T07:13:22.761Z,82.75
2022-10-19T07:15:26.178Z,83.18
2022-10-19T07:17:29.518Z,83.77
2022-10-19T07:19:34.896Z,83.50
2022-10-19T07:21:41.629Z,84.08
2022-10-19T07:23:47.209Z,84.37
2022-10-19T07:25:52.576Z,84.87
2022-10-19T07:27:55.864Z,84.53
2022-10-19T07:29:59.168Z,84.56
2022-10-19T07:32:02.467Z,85.44
2022-10-19T07:34:06.364Z,84.87
2022-10-19T07:36:13.441Z,84.99
2022-10-19T07:38:16.775Z,85.16
2022-10-19T07:40:20.066Z,85.21
2022-10-19T07:42:23.451Z,85.92
2022-10-19T07:44:27.149Z,86.04
2022-10-19T07:46:33.454Z,86.16
2022-10-19T07:48:36.984Z,86.14
2022-10-19T07:50:40.314Z,86.36
2022-10-19T07:52:44.972Z,86.51
2022-10-19T07:54:50.917Z,86.83
2022-10-19T07:56:54.297Z,86.45
2022-10-19T07:58:58.926Z,86.82
2022-10-19T08:01:03.432Z,86.43
2022-10-19T08:05:31.008Z,86.48
2022-10-19T08:07:34.568Z,86.24
2022-10-19T08:09:52.816Z,85.86
2022-10-19T08:11:58.130Z,85.63
2022-10-19T08:14:02.944Z,86.24
2022-10-19T08:16:07.411Z,85.81
2022-10-19T08:18:11.672Z,85.58
2022-10-19T08:20:15.144Z,85.07
2022-10-19T08:22:18.462Z,85.59
2022-10-19T08:24:22.128Z,85.54
2022-10-19T08:26:29.316Z,85.00
2022-10-19T08:28:32.746Z,85.17
2022-10-19T08:30:36.648Z,85.61
2022-10-19T08:32:40.106Z,85.58
2022-10-19T08:34:43.436Z,84.81
2022-10-19T08:36:48.382Z,84.62
2022-10-19T08:38:51.926Z,85.12
2022-10-19T08:40:55.673Z,84.41
2022-10-19T08:43:06.284Z,84.67
2022-10-19T08:45:27.125Z,84.96
2022-10-19T08:47:46.576Z,84.58
2022-10-19T08:49:50.094Z,84.64
2022-10-19T08:51:59.429Z,83.92
2022-10-19T08:54:12.084Z,84.08
2022-10-19T08:56:45.841Z,83.92
2022-10-19T08:58:57.973Z,83.04
2022-10-19T09:01:07.947Z,83.57
2022-10-19T09:03:27.147Z,82.94
2022-10-19T09:05:48.224Z,82.79
2022-10-19T09:07:54.605Z,82.74
2022-10-19T09:10:01.618Z,81.52
2022-10-19T09:12:07.887Z,81.26
2022-10-19T09:14:17.525Z,81.20
2022-10-19T09:16:21.329Z,80.94
2022-10-19T09:18:27.863Z,79.66
2022-10-19T09:20:37.979Z,79.06
2022-10-19T09:22:42.780Z,78.46
2022-10-19T09:24:51.945Z,77.54
2022-10-19T09:26:58.109Z,77.29
2022-10-19T09:29:07.075Z,77.44
2022-10-19T09:31:17.164Z,76.10
2022-10-19T09:33:29.494Z,75.54
2022-10-19T09:35:38.001Z,74.95
2022-10-19T09:37:46.964Z,74.82
2022-10-19T09:39:54.113Z,74.48
2022-10-19T09:42:02.603Z,73.99
2022-10-19T09:44:06.390Z,73.25
2022-10-19T09:46:19.966Z,73.63
2022-10-19T09:48:29.675Z,73.61
2022-10-19T09:50:33.047Z,71.08
2022-10-19T09:52:38.341Z,72.02
2022-10-19T09:54:41.696Z,71.26
2022-10-19T09:56:54.710Z,69.93
2022-10-19T09:58:59.686Z,69.42
2022-10-19T10:01:04.319Z,69.70
2022-10-19T10:03:09.659Z,68.84
2022-10-19T10:05:16.151Z,69.24
2022-10-19T10:07:19.732Z,67.92
2022-10-19T10:09:27.286Z,68.07
2022-10-19T10:11:32.707Z,67.75
2022-10-19T10:13:39.953Z,66.69
2022-10-19T10:15:44.312Z,66.33
2022-10-19T10:17:48.751Z,67.26
2022-10-19T10:20:04.956Z,64.50
2022-10-19T10:22:24.087Z,64.87
2022-10-19T10:24:27.965Z,64.65
2022-10-19T10:26:40.928Z,64.30
2022-10-19T10:28:47.674Z,63.14
2022-10-19T10:30:54.448Z,62.86
2022-10-19T10:33:04.725Z,62.62
2022-10-19T10:35:22.297Z,62.38
2022-10-19T10:37:32.478Z,62.07
2022-10-19T10:39:41.164Z,62.67
2022-10-19T10:41:45.677Z,61.38
2022-10-19T10:43:57.548Z,62.10
2022-10-19T10:46:04.262Z,60.98
2022-10-19T10:48:16.208Z,60.72
2022-10-19T10:50:24.789Z,59.84
2022-10-19T10:52:31.205Z,58.89
2022-10-19T10:54:34.873Z,58.71
2022-10-19T10:56:40.792Z,58.09
2022-10-19T10:58:48.465Z,59.64
2022-10-19T11:00:52.058Z,57.34
2022-10-19T11:02:57.468Z,57.56
2022-10-19T11:05:02.782Z,55.52
2022-10-19T11:07:11.809Z,55.89
2022-10-19T11:09:17.730Z,56.68
2022-10-19T11:11:22.585Z,55.00
2022-10-19T11:13:28.687Z,54.27
2022-10-19T11:15:32.986Z,54.51
2022-10-19T11:17:38.581Z,53.20
2022-10-19T11:19:43.192Z,53.38
2022-10-19T11:21:52.804Z,54.61
2022-10-19T11:24:02.523Z,52.61
2022-10-19T11:26:14.267Z,51.55
2022-10-19T11:28:23.189Z,52.76
2022-10-19T11:30:26.654Z,53.20
2022-10-19T11:32:35.227Z,52.72
2022-10-19T11:34:50.450Z,53.23
2022-10-19T11:36:55.959Z,52.97
2022-10-19T11:39:07.783Z,51.86
2022-10-19T11:41:18.856Z,52.08
2022-10-19T11:43:27.838Z,52.18
2022-10-19T11:45:38.471Z,50.08
2022-10-19T11:47:51.831Z,49.88
2022-10-19T11:50:00.721Z,51.55
2022-10-19T11:52:10.404Z,52.30
2022-10-19T11:54:22.292Z,51.32
2022-10-19T11:56:44.811Z,51.10
2022-10-19T11:58:59.338Z,50.43
2022-10-19T12:01:09.173Z,49.71
2022-10-19T12:03:19.799Z,51.29
2022-10-19T12:05:26.360Z,49.59
2022-10-19T12:07:47.068Z,50.27
2022-10-19T12:09:55.332Z,51.08
2022-10-19T12:12:16.143Z,51.96
2022-10-19T12:14:21.362Z,49.37
2022-10-19T12:16:30.915Z,48.68
2022-10-19T12:18:37.678Z,49.27
2022-10-19T12:20:43.887Z,49.96
2022-10-19T12:22:47.162Z,48.96
2022-10-19T12:24:51.262Z,46.41
2022-10-19T12:26:55.792Z,47.38
2022-10-19T12:29:01.493Z,47.08
2022-10-19T12:31:05.712Z,46.58
2022-10-19T12:33:19.107Z,46.38
2022-10-19T12:35:42.901Z,46.46
2022-10-19T12:37:51.736Z,47.37
2022-10-19T12:39:58.222Z,47.22
2022-10-19T12:42:10.594Z,46.02
2022-10-19T12:46:32.337Z,46.83
2022-10-19T12:48:36.450Z,46.51
2022-10-19T12:50:54.558Z,46.52
2022-10-19T12:52:57.613Z,45.21
2022-10-19T12:55:11.311Z,45.71
2022-10-19T12:57:28.585Z,44.19
2022-10-19T12:59:32.790Z,43.04
2022-10-19T13:01:45.162Z,42.77
2022-10-19T13:03:49.685Z,43.53
2022-10-19T13:06:00.187Z,44.45
2022-10-19T13:08:06.903Z,44.38
2022-10-19T13:10:19.541Z,44.07
2022-10-19T13:12:44.258Z,42.54
2022-10-19T13:14:48.851Z,43.76
2022-10-19T13:17:00.807Z,43.99
2022-10-19T13:19:04.827Z,44.27
2022-10-19T13:21:08.543Z,45.01
2022-10-19T13:23:26.525Z,46.16
2022-10-19T13:25:30.498Z,45.69
2022-10-19T13:27:38.808Z,45.71
2022-10-19T13:29:44.754Z,46.35
2022-10-19T13:31:47.936Z,45.98
2022-10-19T13:33:51.752Z,46.01
2022-10-19T13:36:06.981Z,45.61
2022-10-19T13:38:27.262Z,47.23
2022-10-19T13:40:31.304Z,47.18
2022-10-19T13:42:34.803Z,46.30
2022-10-19T13:44:39.446Z,46.07
2022-10-19T13:46:52.109Z,48.55
2022-10-19T13:49:10.300Z,49.33
2022-10-19T13:51:19.610Z,49.94
2022-10-19T13:53:29.565Z,50.85
2022-10-19T13:55:50.159Z,51.50
2022-10-19T13:58:03.031Z,51.13
2022-10-19T14:00:14.819Z,51.89
2022-10-19T14:03:05.439Z,52.91
2022-10-19T14:05:18.120Z,53.39
2022-10-19T14:07:25.695Z,53.68
2022-10-19T14:09:58.692Z,52.51
2022-10-19T14:12:06.879Z,52.57
2022-10-19T14:14:14.634Z,52.46
2022-10-19T14:16:19.424Z,53.34
2022-10-19T14:18:27.829Z,53.57
2022-10-19T14:20:32.546Z,54.23
2022-10-19T14:22:36.858Z,54.88
2022-10-19T14:24:39.844Z,55.67
2022-10-19T14:26:42.913Z,55.32
2022-10-19T14:28:45.993Z,55.93
2022-10-19T14:30:55.481Z,56.32
2022-10-19T14:33:02.045Z,56.19
2022-10-19T14:35:19.643Z,55.58
2022-10-19T14:37:24.046Z,56.58
2022-10-19T14:39:30.985Z,56.22
2022-10-19T14:43:43.659Z,56.78
2022-10-19T14:46:03.661Z,56.94
2022-10-19T14:48:07.610Z,57.41
2022-10-19T14:50:13.410Z,56.33
2022-10-19T14:52:19.041Z,56.46
2022-10-19T14:54:30.958Z,56.95
2022-10-19T14:56:35.610Z,56.15
2022-10-19T14:58:41.416Z,56.36
2022-10-19T15:00:49.356Z,55.93
2022-10-19T15:02:58.162Z,56.14
2022-10-19T15:05:04.601Z,55.16
2022-10-19T15:07:16.871Z,54.24
2022-10-19T15:09:36.808Z,55.13
2022-10-19T15:11:49.737Z,54.74
2022-10-19T15:14:02.397Z,54.37
2022-10-19T15:16:05.534Z,54.43
2022-10-19T15:18:43.541Z,54.74
2022-10-19T15:20:49.564Z,54.49
2022-10-19T15:23:19.182Z,55.26
2022-10-19T15:25:35.297Z,56.20
2022-10-19T15:27:40.388Z,56.80
2022-10-19T15:29:54.962Z,55.91
2022-10-19T15:32:13.243Z,56.83
2022-10-19T15:34:25.623Z,57.24
2022-10-19T15:36:31.339Z,57.10
2022-10-19T15:38:36.211Z,57.03
2022-10-19T15:40:42.728Z,56.31
2022-10-19T15:42:48.644Z,57.37
2022-10-19T15:44:51.802Z,57.36
2022-10-19T15:47:19.251Z,57.89
2022-10-19T15:49:40.123Z,58.26
2022-10-19T15:51:47.647Z,58.99
2022-10-19T15:53:51.583Z,59.41
2022-10-19T15:55:56.371Z,59.41
2022-10-19T15:57:59.979Z,59.18
2022-10-19T16:00:12.377Z,59.94
2022-10-19T16:02:15.824Z,60.28
2022-10-19T16:04:19.083Z,59.87
2022-10-19T16:06:25.064Z,59.56
2022-10-19T16:08:28.286Z,59.70
2022-10-19T16:10:31.526Z,59.92
2022-10-19T16:12:35.967Z,60.15
2022-10-19T16:14:39.074Z,60.36
2022-10-19T16:16:42.334Z,60.95
2022-10-19T16:18:45.713Z,60.78
2022-10-19T16:20:49.062Z,61.07
2022-10-19T16:22:52.949Z,61.44
2022-10-19T16:24:56.223Z,61.53
2022-10-19T16:26:59.353Z,62.01
2022-10-19T16:29:05.770Z,62.26
2022-10-19T16:31:08.911Z,62.45
2022-10-19T16:33:11.948Z,62.25
2022-10-19T16:35:15.050Z,62.65
2022-10-19T16:37:18.335Z,62.97
2022-10-19T16:39:21.412Z,63.34
2022-10-19T16:41:24.633Z,63.41
2022-10-19T16:43:27.795Z,63.34
2022-10-19T16:45:32.476Z,63.62
2022-10-19T16:47:35.632Z,63.66
2022-10-19T16:49:39.063Z,64.07
2022-10-19T16:51:43.276Z,64.00
2022-10-19T16:53:46.608Z,64.47
2022-10-19T16:55:49.848Z,64.83
2022-10-19T16:57:53.427Z,64.56
2022-10-19T16:59:56.415Z,64.59
2022-10-19T17:02:00.813Z,64.97
2022-10-19T17:04:04.169Z,65.07
2022-10-19T17:06:07.894Z,65.04
2022-10-19T17:08:11.699Z,65.40
2022-10-19T17:10:15.354Z,65.02
2022-10-19T17:12:18.771Z,64.94
2022-10-19T17:14:21.879Z,65.69
2022-10-19T17:16:26.238Z,65.62
2022-10-19T17:18:30.769Z,65.46
2022-10-19T17:20:34.343Z,65.89
2022-10-19T17:22:37.911Z,65.96
2022-10-19T17:24:41.454Z,66.37
2022-10-19T17:26:45.814Z,66.36
2022-10-19T17:28:49.274Z,66.51
2022-10-19T17:30:53.721Z,66.52
2022-10-19T17:32:56.875Z,66.95
2022-10-19T17:35:01.303Z,66.90
2022-10-19T17:37:04.548Z,67.50
2022-10-19T17:39:09.625Z,67.14
2022-10-19T17:41:14.991Z,67.35
2022-10-19T17:43:18.357Z,67.52
2022-10-19T17:45:21.696Z,67.86
2022-10-19T17:47:25.160Z,67.90
2022-10-19T17:49:29.659Z,68.27
2022-10-19T17:51:35.552Z,68.33
2022-10-19T17:53:38.574Z,69.00
2022-10-19T17:55:41.853Z,69.30
2022-10-19T17:57:45.296Z,68.74
2022-10-19T17:59:52.899Z,68.86
2022-10-19T18:01:56.365Z,68.74
2022-10-19T18:03:59.900Z,68.89
2022-10-19T18:06:10.686Z,69.51
2022-10-19T18:08:15.783Z,69.36
2022-10-19T18:10:19.080Z,69.68
2022-10-19T18:12:22.500Z,69.73
2022-10-19T18:14:25.825Z,70.04
2022-10-19T18:16:31.347Z,69.67
2022-10-19T18:18:37.067Z,69.80
2022-10-19T18:20:40.398Z,70.04
2022-10-19T18:22:43.695Z,70.04
2022-10-19T18:24:49.417Z,69.81
2022-10-19T18:26:52.685Z,70.17
2022-10-19T18:28:57.451Z,70.59
2022-10-19T18:31:06.501Z,70.49
2022-10-19T18:33:12.854Z,70.91
2022-10-19T18:35:16.533Z,70.82
2022-10-19T18:37:19.677Z,70.92
2022-10-19T18:39:23.038Z,70.79
2022-10-19T18:41:28.042Z,71.25
2022-10-19T18:43:31.116Z,71.03
2022-10-19T18:45:34.371Z,71.17
2022-10-19T18:47:37.527Z,71.34
2022-10-19T18:49:40.742Z,71.35
2022-10-19T18:51:44.817Z,71.73
2022-10-19T18:53:48.967Z,71.29
2022-10-19T18:55:59.108Z,71.62
2022-10-19T18:58:03.806Z,71.85
2022-10-19T19:00:07.390Z,71.89
2022-10-19T19:02:17.284Z,72.21
2022-10-19T19:04:26.012Z,72.65
2022-10-19T19:06:31.559Z,72.18
2022-10-19T19:08:35.058Z,72.40
2022-10-19T19:10:38.542Z,72.56
2022-10-19T19:12:44.424Z,72.81
2022-10-19T19:14:49.252Z,73.01
2022-10-19T19:16:52.401Z,73.28
2022-10-19T19:18:56.678Z,73.23
2022-10-19T19:20:59.846Z,73.54
2022-10-19T19:23:02.862Z,73.70
2022-10-19T19:25:06.469Z,73.72
2022-10-19T19:27:09.687Z,73.91
2022-10-19T19:29:12.752Z,74.08
2022-10-19T19:31:17.154Z,74.25
2022-10-19T19:33:20.269Z,74.13
2022-10-19T19:35:23.455Z,73.99
2022-10-19T19:37:26.778Z,74.02
2022-10-19T19:39:30.051Z,74.20
2022-10-19T19:41:34.172Z,73.99
2022-10-19T19:43:37.981Z,74.26
2022-10-19T19:45:41.628Z,75.05
2022-10-19T19:47:46.324Z,74.68
2022-10-19T19:49:49.389Z,74.61
2022-10-19T19:51:53.123Z,74.82
2022-10-19T19:53:56.280Z,75.19
2022-10-19T19:55:59.382Z,75.47
2022-10-19T19:58:02.427Z,75.62
2022-10-19T20:00:05.870Z,75.61
2022-10-19T20:02:16.374Z,75.73
2022-10-19T20:04:20.929Z,75.75
2022-10-19T20:06:25.957Z,75.57
2022-10-19T20:08:29.315Z,75.58
2022-10-19T20:10:32.440Z,75.72
2022-10-19T20:12:35.473Z,76.03
2022-10-19T20:14:38.543Z,76.23
2022-10-19T20:16:41.643Z,75.62
2022-10-19T20:18:45.910Z,76.04
2022-10-19T20:20:50.328Z,75.87
2022-10-19T20:22:53.379Z,76.19
2022-10-19T20:24:56.401Z,75.88
2022-10-19T20:26:59.472Z,75.96
2022-10-19T20:29:02.935Z,76.23
2022-10-19T20:31:07.093Z,76.05
2022-10-19T20:33:10.179Z,76.41
2022-10-19T20:35:13.323Z,76.63
2022-10-19T20:37:17.723Z,76.31
2022-10-19T20:39:20.708Z,76.58
2022-10-19T20:41:24.800Z,76.75
2022-10-19T20:43:27.875Z,77.13
2022-10-19T20:45:31.297Z,77.05
2022-10-19T20:47:34.430Z,76.84
2022-10-19T20:49:37.643Z,76.50
2022-10-19T20:51:40.669Z,76.82
2022-10-19T20:53:46.383Z,77.23
2022-10-19T20:55:51.036Z,77.15
2022-10-19T20:57:54.104Z,77.02
2022-10-19T20:59:57.171Z,77.38
2022-10-19T21:02:00.594Z,77.50
2022-10-19T21:04:04.772Z,77.55
2022-10-19T21:06:09.211Z,77.94
2022-10-19T21:08:15.286Z,78.07
2022-10-19T21:10:19.803Z,78.39
2022-10-19T21:12:22.800Z,78.07
2022-10-19T21:14:28.594Z,78.19
2022-10-19T21:16:33.643Z,78.14
2022-10-19T21:18:36.658Z,78.35
2022-10-19T21:20:39.703Z,78.43
2022-10-19T21:22:42.982Z,78.70
2022-10-19T21:24:46.431Z,78.89
2022-10-19T21:28:56.344Z,79.65
2022-10-19T21:31:03.167Z,79.50
2022-10-19T21:33:08.679Z,79.64
2022-10-19T21:35:11.687Z,79.30
2022-10-19T21:37:17.544Z,79.18
2022-10-19T21:39:20.703Z,79.56
2022-10-19T21:41:26.324Z,79.81
2022-10-19T21:43:31.178Z,79.56
2022-10-19T21:45:38.032Z,79.44
2022-10-19T21:47:41.644Z,79.31
2022-10-19T21:49:44.686Z,80.08
2022-10-19T21:51:49.145Z,80.05
2022-10-19T21:53:52.269Z,80.66
2022-10-19T21:55:55.662Z,80.30
2022-10-19T21:57:58.629Z,80.06
2022-10-19T22:00:03.126Z,80.29
2022-10-19T22:02:16.011Z,80.50
2022-10-19T22:04:19.409Z,80.30
2022-10-19T22:06:22.415Z,80.21
2022-10-19T22:08:25.669Z,80.49
2022-10-19T22:10:28.783Z,80.88
2022-10-19T22:12:31.811Z,81.37
2022-10-19T22:14:34.807Z,81.13
2022-10-19T22:16:40.399Z,81.19
2022-10-19T22:18:44.000Z,81.64
2022-10-19T22:20:47.024Z,81.84
2022-10-19T22:22:52.741Z,82.36
2022-10-19T22:24:59.096Z,82.46
2022-10-19T22:27:02.184Z,82.52
2022-10-19T22:29:06.148Z,82.53
2022-10-19T22:31:09.462Z,82.41
2022-10-19T22:33:14.584Z,82.49
2022-10-19T22:35:17.787Z,82.52
2022-10-19T22:37:23.337Z,82.92
2022-10-19T22:39:27.897Z,82.95
2022-10-19T22:41:31.163Z,83.30
2022-10-19T22:43:34.156Z,83.76
2022-10-19T22:45:37.163Z,83.67
2022-10-19T22:47:40.320Z,84.18
2022-10-19T22:49:44.673Z,84.14
2022-10-19T22:51:47.712Z,84.61
2022-10-19T22:53:50.732Z,84.43
2022-10-19T22:55:53.740Z,84.51
2022-10-19T22:57:56.823Z,85.09
2022-10-19T22:59:59.829Z,84.88
2022-10-19T23:02:03.626Z,84.84
2022-10-19T23:04:07.008Z,85.00
2022-10-19T23:06:14.955Z,85.33
2022-10-19T23:08:18.010Z,85.65
2022-10-19T23:10:21.242Z,85.60
2022-10-19T23:12:24.293Z,85.94
2022-10-19T23:14:27.290Z,86.10
2022-10-19T23:16:30.312Z,86.12
2022-10-19T23:18:33.343Z,85.87
2022-10-19T23:20:36.379Z,86.04
2022-10-19T23:22:40.809Z,85.95
2022-10-19T23:24:43.885Z,86.17
2022-10-19T23:26:46.929Z,85.90
2022-10-19T23:28:50.791Z,85.96
2022-10-19T23:30:53.819Z,85.59
2022-10-19T23:32:59.172Z,86.04
2022-10-19T23:35:02.162Z,85.47
2022-10-19T23:37:05.214Z,85.39
2022-10-19T23:39:09.686Z,85.78
2022-10-19T23:41:12.740Z,85.80
2022-10-19T23:43:18.626Z,85.69
2022-10-19T23:45:21.625Z,86.03
2022-10-19T23:47:24.955Z,85.72
2022-10-19T23:49:27.975Z,85.74
2022-10-19T23:51:30.995Z,85.97
2022-10-19T23:53:38.410Z,86.15
2022-10-19T23:55:45.212Z,86.02
2022-10-19T23:57:48.230Z,85.83
2022-10-19T23:59:51.261Z,85.88
